Estació municipal de Les Masies de Roda (Osona, Ter)

Consulta les dades en temps real de l'estació municipal de Les Masies de Roda





Hora UTC 04:40
Temperatura 8.8 ºC
Sòl 15 cm 7.4 ºC
Humitat 96.9 %
Pressió 1013.7 hPa
Pluja 0.0 mm
Velocitat vent 2.9 km/h
Direcció vent N
Radiació solar 1.9 W/m²

Dades diàries 2026-05-09



Hora UTC (hivern +1h; estiu +2h)
Temperatura (ºC) Humitat (%) Pressió (hPa) Velocitat vent (km/h) Precipitació (mm) Radiació solar (W/m²)
Hora UTC Aire Sòl 15 cm Humitat Pressió Vel. Dir. Vel. Max Dir. Intent. màx 5 min. Rad. Sol.
00:05 9.9 8.5 95.9 1014.9 1.5 S 1.5 S 0.0 0.1
00:10 9.9 8.4 96.3 1014.8 1.1 NNE 2.8 N 0.0 0.1
00:15 9.8 8.2 95.9 1014.8 0.6 NNW 2.5 NNW 0.0 0.1
00:20 9.5 7.9 95.9 1014.8 0.0 NNE 0.0 NNW 0.0 0.1
00:25 9.5 7.7 96.3 1015.0 0.0 NNE 0.0 NNW 0.0 0.1
00:30 9.5 7.6 96.5 1014.8 0.0 NNE 0.0 NNW 0.0 0.1
00:35 9.6 7.6 96.7 1014.9 1.6 NNW 3.5 WNW 0.0 0.1
00:40 9.3 7.6 96.5 1014.7 0.6 NW 2.5 WNW 0.0 0.1
00:45 9.4 7.6 96.8 1014.8 0.0 NNE 0.0 N 0.0 0.1
00:50 9.4 7.8 96.7 1014.6 0.0 NNE 0.0 N 0.0 0.1
00:55 9.2 8.2 96.8 1014.9 0.0 NNE 0.0 N 0.0 0.1
01:00 9.4 8.5 97.2 1014.7 0.3 N 2.5 N 0.0 0.1
01:05 9.7 8.8 97.4 1014.8 0.5 NE 2.5 ENE 0.0 0.1
01:10 9.8 9.2 97.4 1014.6 0.0 NNE 0.0 NNE 0.0 0.1
01:15 9.9 9.3 97.4 1014.7 0.0 NNE 0.0 NNE 0.0 0.1
01:20 10.0 9.5 97.4 1014.7 0.0 NNE 0.0 SE 0.0 0.1
01:25 10.0 9.6 97.4 1014.7 0.9 SW 2.8 WSW 0.0 0.1
01:30 10.0 9.7 97.5 1014.6 0.0 NNE 0.0 SW 0.0 0.1
01:35 10.1 9.8 97.6 1014.5 0.0 NNE 0.0 S 0.0 0.1
01:40 10.3 9.9 97.6 1014.5 1.4 W 2.8 W 0.0 0.1
01:45 10.2 9.9 97.5 1014.5 0.0 NW 1.4 NW 0.0 0.1
01:50 10.3 9.9 97.6 1014.4 1.9 NNW 3.2 N 0.0 0.1
01:55 10.3 10.0 97.6 1014.5 2.3 NW 3.2 WNW 0.0 0.1
02:00 10.4 10.0 97.5 1014.3 1.1 NNW 2.8 NNW 0.0 0.1
02:05 10.4 10.0 97.6 1014.4 0.0 NNE 0.0 NNW 0.0 0.1
02:10 10.5 10.1 97.6 1014.3 0.0 NNE 0.0 NNW 0.0 0.1
02:15 10.6 10.2 97.6 1014.3 0.6 NNW 2.5 NNW 0.0 0.1
02:20 10.6 10.2 97.7 1014.1 2.2 N 3.5 NNE 0.0 0.1
02:25 10.7 10.3 97.6 1014.2 3.3 NNW 4.2 NNW 0.0 0.1
02:30 10.8 10.2 97.6 1014.0 1.3 NNW 4.2 NNW 0.0 0.1
02:35 10.7 10.0 97.4 1014.1 0.3 N 2.8 N 0.0 0.1
02:40 10.5 9.7 97.1 1013.9 3.2 W 4.2 W 0.0 0.1
02:45 10.4 9.3 97.2 1014.0 2.6 NW 4.2 NNW 0.0 0.1
02:50 10.4 9.0 97.3 1013.8 2.7 NW 3.9 NNW 0.0 0.1
02:55 10.2 8.7 97.0 1013.9 0.2 WNW 2.1 NW 0.0 0.1
03:00 10.2 8.4 97.2 1013.8 0.0 NNE 0.0 WSW 0.0 0.1
03:05 10.0 8.2 96.8 1013.8 2.8 W 4.2 WSW 0.0 0.1
03:10 9.5 7.9 96.6 1013.6 0.0 WNW 1.4 WNW 0.0 0.1
03:15 9.5 7.7 96.9 1013.7 0.0 NNE 0.0 WNW 0.0 0.1
03:20 9.6 7.6 97.1 1013.6 2.3 SSW 3.9 SSW 0.0 0.1
03:25 9.4 7.4 96.9 1013.7 2.3 WSW 3.2 SSW 0.0 0.1
03:30 9.3 7.2 97.1 1013.6 0.8 W 2.1 W 0.0 0.1
03:35 9.2 7.0 97.1 1013.6 0.7 S 2.8 S 0.0 0.1
03:40 9.1 6.9 97.2 1013.6 4.6 S 7.1 SSE 0.0 0.1
03:45 9.4 7.1 97.6 1013.5 5.4 S 8.5 S 0.0 0.1
03:50 9.5 7.5 97.5 1013.5 5.5 S 7.8 S 0.0 0.1
03:55 9.4 7.7 97.2 1013.6 5.0 SSW 7.8 SSW 0.0 0.1
04:00 9.2 7.6 97.0 1013.7 5.8 SSW 8.8 SSW 0.0 0.1
04:05 9.1 7.5 97.0 1013.6 5.0 S 7.8 S 0.0 0.1
04:10 9.1 7.5 97.0 1013.6 3.6 S 6.0 SSE 0.0 0.1
04:15 9.1 7.4 96.8 1013.4 2.3 SSE 4.6 S 0.0 0.1
04:20 9.2 7.3 96.7 1013.5 3.1 SSE 6.0 SSE 0.0 0.2
04:25 8.8 7.3 95.9 1013.4 1.9 WNW 3.9 NW 0.0 0.5
04:30 8.4 7.2 95.8 1013.7 3.7 WNW 5.0 WNW 0.0 2.0
04:35 8.4 7.2 96.6 1013.5 2.4 NNW 3.5 NNW 0.0 2.5
04:40 8.8 7.4 96.9 1013.7 2.9 N 5.0 N 0.0 1.9
Màxima 10.8 10.3 97.7 1015.0 5.8 SSW 8.8 SSW 0.0 2.5
Mínima 8.4 6.9 95.8 1013.4
Total 0.0